sensor_id;sensor_type;location;lat;lon;timestamp;pressure;altitude;pressure_sealevel;temperature;humidity
46023;BME280;31756;47.936;16.224;2023-03-21T00:01:06;98812.56;;;7.48;nan
46023;BME280;31756;47.936;16.224;2023-03-21T00:03:33;98813.41;;;7.50;nan
46023;BME280;31756;47.936;16.224;2023-03-21T00:06:04;98810.00;;;7.55;nan
46023;BME280;31756;47.936;16.224;2023-03-21T00:08:30;98809.09;;;7.61;nan
46023;BME280;31756;47.936;16.224;2023-03-21T00:10:58;98808.28;;;7.51;nan
46023;BME280;31756;47.936;16.224;2023-03-21T00:13:25;98813.38;;;7.56;nan
46023;BME280;31756;47.936;16.224;2023-03-21T00:15:53;98802.38;;;7.46;nan
46023;BME280;31756;47.936;16.224;2023-03-21T00:18:22;98804.06;;;7.44;nan
46023;BME280;31756;47.936;16.224;2023-03-21T00:21:01;98793.03;;;7.47;nan
46023;BME280;31756;47.936;16.224;2023-03-21T00:23:29;98781.13;;;7.40;nan
46023;BME280;31756;47.936;16.224;2023-03-21T00:25:56;98799.81;;;7.55;nan
46023;BME280;31756;47.936;16.224;2023-03-21T00:28:22;98777.66;;;7.56;nan
46023;BME280;31756;47.936;16.224;2023-03-21T00:30:48;98771.69;;;7.60;nan
46023;BME280;31756;47.936;16.224;2023-03-21T00:33:14;98795.44;;;7.75;nan
46023;BME280;31756;47.936;16.224;2023-03-21T00:35:40;98792.88;;;7.74;nan
46023;BME280;31756;47.936;16.224;2023-03-21T00:38:12;98792.06;;;7.72;nan
46023;BME280;31756;47.936;16.224;2023-03-21T00:40:38;98786.09;;;7.70;nan
46023;BME280;31756;47.936;16.224;2023-03-21T00:43:03;98780.19;;;7.66;nan
46023;BME280;31756;47.936;16.224;2023-03-21T00:45:29;98779.34;;;7.60;nan
46023;BME280;31756;47.936;16.224;2023-03-21T00:47:56;98778.50;;;7.58;nan
46023;BME280;31756;47.936;16.224;2023-03-21T00:50:21;98775.16;;;7.48;nan
46023;BME280;31756;47.936;16.224;2023-03-21T00:52:47;98770.09;;;7.41;nan
46023;BME280;31756;47.936;16.224;2023-03-21T00:55:13;98768.44;;;7.33;nan
46023;BME280;31756;47.936;16.224;2023-03-21T00:57:39;98771.88;;;7.25;nan
46023;BME280;31756;47.936;16.224;2023-03-21T01:00:05;98769.31;;;7.20;nan
46023;BME280;31756;47.936;16.224;2023-03-21T01:02:32;98768.50;;;7.12;nan
46023;BME280;31756;47.936;16.224;2023-03-21T01:04:57;98765.09;;;7.06;nan
46023;BME280;31756;47.936;16.224;2023-03-21T01:07:23;98770.25;;;7.00;nan
46023;BME280;31756;47.936;16.224;2023-03-21T01:09:48;98769.38;;;6.93;nan
46023;BME280;31756;47.936;16.224;2023-03-21T01:12:17;98766.00;;;6.88;nan
46023;BME280;31756;47.936;16.224;2023-03-21T01:14:42;98759.22;;;6.84;nan
46023;BME280;31756;47.936;16.224;2023-03-21T01:17:08;98760.09;;;6.77;nan
46023;BME280;31756;47.936;16.224;2023-03-21T01:19:33;98766.88;;;6.73;nan
46023;BME280;31756;47.936;16.224;2023-03-21T01:21:59;98753.31;;;6.70;nan
46023;BME280;31756;47.936;16.224;2023-03-21T01:24:26;98754.16;;;6.66;nan
46023;BME280;31756;47.936;16.224;2023-03-21T01:26:51;98751.63;;;6.61;nan
46023;BME280;31756;47.936;16.224;2023-03-21T01:29:17;98749.06;;;6.55;nan
46023;BME280;31756;47.936;16.224;2023-03-21T01:31:42;98750.75;;;6.58;nan
46023;BME280;31756;47.936;16.224;2023-03-21T01:34:08;98755.84;;;6.62;nan
46023;BME280;31756;47.936;16.224;2023-03-21T01:36:36;98757.56;;;6.63;nan
46023;BME280;31756;47.936;16.224;2023-03-21T01:39:05;98753.31;;;6.64;nan
46023;BME280;31756;47.936;16.224;2023-03-21T01:41:33;98743.97;;;6.66;nan
46023;BME280;31756;47.936;16.224;2023-03-21T01:43:59;98746.53;;;6.66;nan
46023;BME280;31756;47.936;16.224;2023-03-21T01:46:39;98747.38;;;6.59;nan
46023;BME280;31756;47.936;16.224;2023-03-21T01:52:00;98737.19;;;6.50;nan
46023;BME280;31756;47.936;16.224;2023-03-21T01:54:28;98736.34;;;6.52;nan
46023;BME280;31756;47.936;16.224;2023-03-21T01:56:56;98745.69;;;6.61;nan
46023;BME280;31756;47.936;16.224;2023-03-21T01:59:25;98739.72;;;6.59;nan
46023;BME280;31756;47.936;16.224;2023-03-21T02:02:14;98738.03;;;6.52;nan
46023;BME280;31756;47.936;16.224;2023-03-21T02:04:54;98743.16;;;6.47;nan
46023;BME280;31756;47.936;16.224;2023-03-21T02:07:32;98739.75;;;6.42;nan
46023;BME280;31756;47.936;16.224;2023-03-21T02:10:04;98743.16;;;6.39;nan
46023;BME280;31756;47.936;16.224;2023-03-21T02:12:32;98743.16;;;6.35;nan
46023;BME280;31756;47.936;16.224;2023-03-21T02:14:58;98748.25;;;6.29;nan
46023;BME280;31756;47.936;16.224;2023-03-21T02:17:38;98742.31;;;6.30;nan
46023;BME280;31756;47.936;16.224;2023-03-21T02:22:51;98742.31;;;6.21;nan
46023;BME280;31756;47.936;16.224;2023-03-21T02:42:32;98738.91;;;6.46;nan
46023;BME280;31756;47.936;16.224;2023-03-21T02:45:20;98736.34;;;6.61;nan
46023;BME280;31756;47.936;16.224;2023-03-21T02:48:02;98737.16;;;6.63;nan
46023;BME280;31756;47.936;16.224;2023-03-21T02:50:46;98703.25;;;6.38;nan
46023;BME280;31756;47.936;16.224;2023-03-21T02:53:18;98727.84;;;6.50;nan
46023;BME280;31756;47.936;16.224;2023-03-21T02:55:45;98729.56;;;6.39;nan
46023;BME280;31756;47.936;16.224;2023-03-21T02:58:16;98720.22;;;6.29;nan
46023;BME280;31756;47.936;16.224;2023-03-21T03:00:49;98733.81;;;6.31;nan
46023;BME280;31756;47.936;16.224;2023-03-21T03:03:42;98725.34;;;6.26;nan
46023;BME280;31756;47.936;16.224;2023-03-21T03:06:17;98732.97;;;6.23;nan
46023;BME280;31756;47.936;16.224;2023-03-21T03:12:03;98717.69;;;6.20;nan
46023;BME280;31756;47.936;16.224;2023-03-21T03:17:22;98717.69;;;6.12;nan
46023;BME280;31756;47.936;16.224;2023-03-21T03:22:37;98710.94;;;6.02;nan
46023;BME280;31756;47.936;16.224;2023-03-21T03:25:12;98722.78;;;6.12;nan
46023;BME280;31756;47.936;16.224;2023-03-21T03:27:41;98729.56;;;6.12;nan
46023;BME280;31756;47.936;16.224;2023-03-21T03:30:10;98724.47;;;6.12;nan
46023;BME280;31756;47.936;16.224;2023-03-21T03:32:47;98710.91;;;6.01;nan
46023;BME280;31756;47.936;16.224;2023-03-21T03:35:17;98725.34;;;6.11;nan
46023;BME280;31756;47.936;16.224;2023-03-21T03:37:52;98727.88;;;6.09;nan
46023;BME280;31756;47.936;16.224;2023-03-21T03:43:02;98732.97;;;6.06;nan
46023;BME280;31756;47.936;16.224;2023-03-21T03:45:47;98738.91;;;6.05;nan
46023;BME280;31756;47.936;16.224;2023-03-21T03:48:21;98731.25;;;5.96;nan
46023;BME280;31756;47.936;16.224;2023-03-21T03:50:56;98738.91;;;5.99;nan
46023;BME280;31756;47.936;16.224;2023-03-21T03:53:43;98728.72;;;5.99;nan
46023;BME280;31756;47.936;16.224;2023-03-21T03:56:11;98699.84;;;5.83;nan
46023;BME280;31756;47.936;16.224;2023-03-21T03:58:39;98722.78;;;5.95;nan
46023;BME280;31756;47.936;16.224;2023-03-21T04:01:06;98732.97;;;6.09;nan
46023;BME280;31756;47.936;16.224;2023-03-21T04:03:33;98721.09;;;6.13;nan
46023;BME280;31756;47.936;16.224;2023-03-21T04:06:00;98722.81;;;6.32;nan
46023;BME280;31756;47.936;16.224;2023-03-21T04:08:26;98727.03;;;6.28;nan
46023;BME280;31756;47.936;16.224;2023-03-21T04:10:55;98725.34;;;6.27;nan
46023;BME280;31756;47.936;16.224;2023-03-21T04:13:21;98713.47;;;6.23;nan
46023;BME280;31756;47.936;16.224;2023-03-21T04:16:00;98724.47;;;6.33;nan
46023;BME280;31756;47.936;16.224;2023-03-21T04:18:27;98726.19;;;6.19;nan
46023;BME280;31756;47.936;16.224;2023-03-21T04:20:53;98738.06;;;6.29;nan
46023;BME280;31756;47.936;16.224;2023-03-21T04:23:18;98732.97;;;6.21;nan
46023;BME280;31756;47.936;16.224;2023-03-21T04:25:45;98735.50;;;6.21;nan
46023;BME280;31756;47.936;16.224;2023-03-21T04:28:11;98741.47;;;6.17;nan
46023;BME280;31756;47.936;16.224;2023-03-21T04:30:41;98739.75;;;6.12;nan
46023;BME280;31756;47.936;16.224;2023-03-21T04:33:12;98738.91;;;6.11;nan
46023;BME280;31756;47.936;16.224;2023-03-21T04:35:42;98738.06;;;6.12;nan
46023;BME280;31756;47.936;16.224;2023-03-21T04:38:11;98740.59;;;6.12;nan
46023;BME280;31756;47.936;16.224;2023-03-21T04:40:37;98733.00;;;6.11;nan
46023;BME280;31756;47.936;16.224;2023-03-21T04:43:03;98745.72;;;6.15;nan
46023;BME280;31756;47.936;16.224;2023-03-21T04:45:28;98741.47;;;6.19;nan
46023;BME280;31756;47.936;16.224;2023-03-21T04:47:54;98746.53;;;6.32;nan
46023;BME280;31756;47.936;16.224;2023-03-21T04:50:21;98739.75;;;6.37;nan
46023;BME280;31756;47.936;16.224;2023-03-21T04:52:46;98733.81;;;6.38;nan
46023;BME280;31756;47.936;16.224;2023-03-21T04:55:13;98737.19;;;6.37;nan
46023;BME280;31756;47.936;16.224;2023-03-21T04:57:38;98735.50;;;6.41;nan
46023;BME280;31756;47.936;16.224;2023-03-21T05:00:05;98740.59;;;6.38;nan
46023;BME280;31756;47.936;16.224;2023-03-21T05:02:35;98738.91;;;6.32;nan
46023;BME280;31756;47.936;16.224;2023-03-21T05:05:01;98747.41;;;6.30;nan
46023;BME280;31756;47.936;16.224;2023-03-21T05:07:26;98745.69;;;6.29;nan
46023;BME280;31756;47.936;16.224;2023-03-21T05:09:53;98751.66;;;6.26;nan
46023;BME280;31756;47.936;16.224;2023-03-21T05:12:18;98751.66;;;6.26;nan
46023;BME280;31756;47.936;16.224;2023-03-21T05:14:45;98754.19;;;6.29;nan
46023;BME280;31756;47.936;16.224;2023-03-21T05:17:11;98756.72;;;6.32;nan
46023;BME280;31756;47.936;16.224;2023-03-21T05:19:39;98759.25;;;6.37;nan
46023;BME280;31756;47.936;16.224;2023-03-21T05:22:07;98757.56;;;6.37;nan
46023;BME280;31756;47.936;16.224;2023-03-21T05:24:33;98757.59;;;6.40;nan
46023;BME280;31756;47.936;16.224;2023-03-21T05:27:01;98755.88;;;6.42;nan
46023;BME280;31756;47.936;16.224;2023-03-21T05:29:29;98759.25;;;6.46;nan
46023;BME280;31756;47.936;16.224;2023-03-21T05:31:59;98763.53;;;6.47;nan
46023;BME280;31756;47.936;16.224;2023-03-21T05:34:25;98754.19;;;6.49;nan
46023;BME280;31756;47.936;16.224;2023-03-21T05:36:52;98756.72;;;6.48;nan
46023;BME280;31756;47.936;16.224;2023-03-21T05:39:19;98757.56;;;6.47;nan
46023;BME280;31756;47.936;16.224;2023-03-21T05:41:56;98761.81;;;6.52;nan
46023;BME280;31756;47.936;16.224;2023-03-21T05:44:22;98760.94;;;6.67;nan
46023;BME280;31756;47.936;16.224;2023-03-21T05:46:48;98760.94;;;6.77;nan
46023;BME280;31756;47.936;16.224;2023-03-21T05:49:13;98760.91;;;6.88;nan
46023;BME280;31756;47.936;16.224;2023-03-21T05:51:40;98767.69;;;6.97;nan
46023;BME280;31756;47.936;16.224;2023-03-21T05:54:06;98766.81;;;7.13;nan
46023;BME280;31756;47.936;16.224;2023-03-21T05:56:32;98764.22;;;7.19;nan
46023;BME280;31756;47.936;16.224;2023-03-21T05:59:03;98772.69;;;7.24;nan
46023;BME280;31756;47.936;16.224;2023-03-21T06:01:33;98762.50;;;7.25;nan
46023;BME280;31756;47.936;16.224;2023-03-21T06:04:07;98765.88;;;7.33;nan
46023;BME280;31756;47.936;16.224;2023-03-21T06:06:33;98765.81;;;7.43;nan
46023;BME280;31756;47.936;16.224;2023-03-21T06:08:59;98774.28;;;7.48;nan
46023;BME280;31756;47.936;16.224;2023-03-21T06:11:27;98770.88;;;7.58;nan
46023;BME280;31756;47.936;16.224;2023-03-21T06:14:17;98770.00;;;7.59;nan
46023;BME280;31756;47.936;16.224;2023-03-21T06:16:48;98775.06;;;7.66;nan
46023;BME280;31756;47.936;16.224;2023-03-21T06:19:13;98776.78;;;7.66;nan
46023;BME280;31756;47.936;16.224;2023-03-21T06:21:49;98771.66;;;7.64;nan
46023;BME280;31756;47.936;16.224;2023-03-21T06:24:15;98779.31;;;7.69;nan
46023;BME280;31756;47.936;16.224;2023-03-21T06:26:42;98784.44;;;7.67;nan
46023;BME280;31756;47.936;16.224;2023-03-21T06:29:08;98775.88;;;7.76;nan
46023;BME280;31756;47.936;16.224;2023-03-21T06:31:34;98781.78;;;7.82;nan
46023;BME280;31756;47.936;16.224;2023-03-21T06:34:01;98778.28;;;8.00;nan
46023;BME280;31756;47.936;16.224;2023-03-21T06:36:28;98769.66;;;8.16;nan
46023;BME280;31756;47.936;16.224;2023-03-21T06:38:54;98766.16;;;8.34;nan
46023;BME280;31756;47.936;16.224;2023-03-21T06:41:19;98772.75;;;8.59;nan
46023;BME280;31756;47.936;16.224;2023-03-21T06:43:56;98771.81;;;8.69;nan
46023;BME280;31756;47.936;16.224;2023-03-21T06:46:22;98772.31;;;9.02;nan
46023;BME280;31756;47.936;16.224;2023-03-21T06:48:48;98782.97;;;9.39;nan
46023;BME280;31756;47.936;16.224;2023-03-21T06:51:14;98767.25;;;9.71;nan
46023;BME280;31756;47.936;16.224;2023-03-21T06:53:50;98784.63;;;10.08;nan
46023;BME280;31756;47.936;16.224;2023-03-21T06:56:27;98767.84;;;10.46;nan
46023;BME280;31756;47.936;16.224;2023-03-21T06:58:53;98776.75;;;10.76;nan
46023;BME280;31756;47.936;16.224;2023-03-21T07:01:48;98773.16;;;10.86;nan
46023;BME280;31756;47.936;16.224;2023-03-21T07:04:13;98766.72;;;11.10;nan
46023;BME280;31756;47.936;16.224;2023-03-21T07:06:39;98749.69;;;11.06;nan
46023;BME280;31756;47.936;16.224;2023-03-21T07:09:05;98763.06;;;11.21;nan
46023;BME280;31756;47.936;16.224;2023-03-21T07:11:33;98764.50;;;11.36;nan
46023;BME280;31756;47.936;16.224;2023-03-21T07:14:00;98761.50;;;11.56;nan
46023;BME280;31756;47.936;16.224;2023-03-21T07:16:26;98763.97;;;11.60;nan
46023;BME280;31756;47.936;16.224;2023-03-21T07:18:52;98768.16;;;11.66;nan
46023;BME280;31756;47.936;16.224;2023-03-21T07:21:17;98754.69;;;11.95;nan
46023;BME280;31756;47.936;16.224;2023-03-21T07:23:43;98766.41;;;12.08;nan
46023;BME280;31756;47.936;16.224;2023-03-21T07:26:09;98760.44;;;12.06;nan
46023;BME280;31756;47.936;16.224;2023-03-21T07:28:35;98770.47;;;12.16;nan
46023;BME280;31756;47.936;16.224;2023-03-21T07:31:02;98756.97;;;12.08;nan
46023;BME280;31756;47.936;16.224;2023-03-21T07:33:30;98771.72;;;12.35;nan
46023;BME280;31756;47.936;16.224;2023-03-21T07:35:58;98770.66;;;12.44;nan
46023;BME280;31756;47.936;16.224;2023-03-21T07:38:25;98764.66;;;12.77;nan
46023;BME280;31756;47.936;16.224;2023-03-21T07:40:52;98757.97;;;12.72;nan
46023;BME280;31756;47.936;16.224;2023-03-21T07:43:18;98759.84;;;12.65;nan
46023;BME280;31756;47.936;16.224;2023-03-21T07:45:44;98751.00;;;12.43;nan
46023;BME280;31756;47.936;16.224;2023-03-21T07:48:11;98754.69;;;12.31;nan
46023;BME280;31756;47.936;16.224;2023-03-21T07:50:39;98767.63;;;12.28;nan
46023;BME280;31756;47.936;16.224;2023-03-21T07:53:06;98761.75;;;12.57;nan
46023;BME280;31756;47.936;16.224;2023-03-21T07:55:31;98754.13;;;12.54;nan
46023;BME280;31756;47.936;16.224;2023-03-21T07:58:00;98760.69;;;12.66;nan
46023;BME280;31756;47.936;16.224;2023-03-21T08:00:26;98749.41;;;12.71;nan
46023;BME280;31756;47.936;16.224;2023-03-21T08:02:54;98760.41;;;13.09;nan
46023;BME280;31756;47.936;16.224;2023-03-21T08:05:26;98739.22;;;12.99;nan
46023;BME280;31756;47.936;16.224;2023-03-21T08:07:52;98741.38;;;13.16;nan
46023;BME280;31756;47.936;16.224;2023-03-21T08:10:18;98763.66;;;13.17;nan
46023;BME280;31756;47.936;16.224;2023-03-21T08:12:45;98752.53;;;13.46;nan
46023;BME280;31756;47.936;16.224;2023-03-21T08:15:12;98761.44;;;13.65;nan
46023;BME280;31756;47.936;16.224;2023-03-21T08:17:38;98735.91;;;13.57;nan
46023;BME280;31756;47.936;16.224;2023-03-21T08:20:06;98764.94;;;13.62;nan
46023;BME280;31756;47.936;16.224;2023-03-21T08:22:34;98751.63;;;13.48;nan
46023;BME280;31756;47.936;16.224;2023-03-21T08:25:00;98746.84;;;13.35;nan
46023;BME280;31756;47.936;16.224;2023-03-21T08:27:28;98761.56;;;13.31;nan
46023;BME280;31756;47.936;16.224;2023-03-21T08:29:54;98759.63;;;13.38;nan
46023;BME280;31756;47.936;16.224;2023-03-21T08:32:20;98753.09;;;13.26;nan
46023;BME280;31756;47.936;16.224;2023-03-21T08:34:50;98751.06;;;13.37;nan
46023;BME280;31756;47.936;16.224;2023-03-21T08:37:16;98753.84;;;13.31;nan
46023;BME280;31756;47.936;16.224;2023-03-21T08:39:42;98753.09;;;13.26;nan
46023;BME280;31756;47.936;16.224;2023-03-21T08:42:07;98748.97;;;13.20;nan
46023;BME280;31756;47.936;16.224;2023-03-21T08:44:33;98739.75;;;13.12;nan
46023;BME280;31756;47.936;16.224;2023-03-21T08:46:59;98740.53;;;13.15;nan
46023;BME280;31756;47.936;16.224;2023-03-21T08:49:24;98757.19;;;13.33;nan
46023;BME280;31756;47.936;16.224;2023-03-21T08:51:54;98750.28;;;13.35;nan
46023;BME280;31756;47.936;16.224;2023-03-21T08:54:21;98750.56;;;13.55;nan
46023;BME280;31756;47.936;16.224;2023-03-21T08:56:47;98760.59;;;13.64;nan
46023;BME280;31756;47.936;16.224;2023-03-21T08:59:13;98750.06;;;13.72;nan
46023;BME280;31756;47.936;16.224;2023-03-21T09:01:40;98750.97;;;13.99;nan
46023;BME280;31756;47.936;16.224;2023-03-21T09:04:06;98742.09;;;14.07;nan
46023;BME280;31756;47.936;16.224;2023-03-21T09:06:36;98738.25;;;14.21;nan
46023;BME280;31756;47.936;16.224;2023-03-21T09:09:02;98723.16;;;14.35;nan
46023;BME280;31756;47.936;16.224;2023-03-21T09:11:30;98726.84;;;14.28;nan
46023;BME280;31756;47.936;16.224;2023-03-21T09:13:56;98742.28;;;14.55;nan
46023;BME280;31756;47.936;16.224;2023-03-21T09:16:21;98741.66;;;14.74;nan
46023;BME280;31756;47.936;16.224;2023-03-21T09:18:49;98735.38;;;14.56;nan
46023;BME280;31756;47.936;16.224;2023-03-21T09:21:20;98733.91;;;14.49;nan
46023;BME280;31756;47.936;16.224;2023-03-21T09:23:48;98724.28;;;14.79;nan
46023;BME280;31756;47.936;16.224;2023-03-21T09:26:18;98733.66;;;15.06;nan
46023;BME280;31756;47.936;16.224;2023-03-21T09:28:44;98720.81;;;14.80;nan
46023;BME280;31756;47.936;16.224;2023-03-21T09:31:14;98725.44;;;14.45;nan
46023;BME280;31756;47.936;16.224;2023-03-21T09:33:41;98724.69;;;14.14;nan
46023;BME280;31756;47.936;16.224;2023-03-21T09:36:09;98730.97;;;14.05;nan
46023;BME280;31756;47.936;16.224;2023-03-21T09:38:44;98730.25;;;14.02;nan
46023;BME280;31756;47.936;16.224;2023-03-21T09:44:12;98729.53;;;13.97;nan
46023;BME280;31756;47.936;16.224;2023-03-21T09:46:51;98722.84;;;13.91;nan
46023;BME280;31756;47.936;16.224;2023-03-21T09:49:25;98708.06;;;13.96;nan
46023;BME280;31756;47.936;16.224;2023-03-21T09:51:57;98720.31;;;13.90;nan
46023;BME280;31756;47.936;16.224;2023-03-21T09:54:30;98725.22;;;13.97;nan
46023;BME280;31756;47.936;16.224;2023-03-21T09:57:02;98712.72;;;13.85;nan
46023;BME280;31756;47.936;16.224;2023-03-21T09:59:33;98709.25;;;13.86;nan
46023;BME280;31756;47.936;16.224;2023-03-21T10:02:23;98721.06;;;13.93;nan
46023;BME280;31756;47.936;16.224;2023-03-21T10:04:59;98708.31;;;13.89;nan
46023;BME280;31756;47.936;16.224;2023-03-21T10:07:26;98713.38;;;14.18;nan
46023;BME280;31756;47.936;16.224;2023-03-21T10:09:57;98706.56;;;14.17;nan
46023;BME280;31756;47.936;16.224;2023-03-21T10:12:24;98703.34;;;14.37;nan
46023;BME280;31756;47.936;16.224;2023-03-21T10:14:56;98704.94;;;14.66;nan
46023;BME280;31756;47.936;16.224;2023-03-21T10:20:10;98693.78;;;14.90;nan
46023;BME280;31756;47.936;16.224;2023-03-21T10:22:37;98684.44;;;14.86;nan
46023;BME280;31756;47.936;16.224;2023-03-21T10:25:05;98695.00;;;14.80;nan
46023;BME280;31756;47.936;16.224;2023-03-21T10:27:33;98697.00;;;14.72;nan
46023;BME280;31756;47.936;16.224;2023-03-21T10:30:02;98691.13;;;14.68;nan
46023;BME280;31756;47.936;16.224;2023-03-21T10:32:30;98677.00;;;14.53;nan
46023;BME280;31756;47.936;16.224;2023-03-21T10:34:56;98690.03;;;14.49;nan
46023;BME280;31756;47.936;16.224;2023-03-21T10:37:23;98695.53;;;14.64;nan
46023;BME280;31756;47.936;16.224;2023-03-21T10:39:52;98682.84;;;15.06;nan
46023;BME280;31756;47.936;16.224;2023-03-21T10:42:21;98670.28;;;15.21;nan
46023;BME280;31756;47.936;16.224;2023-03-21T10:44:51;98676.00;;;15.29;nan
46023;BME280;31756;47.936;16.224;2023-03-21T10:47:29;98660.72;;;14.99;nan
46023;BME280;31756;47.936;16.224;2023-03-21T10:50:11;98675.38;;;14.99;nan
46023;BME280;31756;47.936;16.224;2023-03-21T10:52:45;98674.84;;;15.14;nan
46023;BME280;31756;47.936;16.224;2023-03-21T10:57:40;98660.28;;;15.80;nan
46023;BME280;31756;47.936;16.224;2023-03-21T11:00:09;98650.06;;;15.77;nan
46023;BME280;31756;47.936;16.224;2023-03-21T11:02:47;98661.31;;;16.18;nan
46023;BME280;31756;47.936;16.224;2023-03-21T11:05:40;98665.31;;;15.83;nan
46023;BME280;31756;47.936;16.224;2023-03-21T11:08:10;98659.00;;;15.90;nan
46023;BME280;31756;47.936;16.224;2023-03-21T11:11:03;98667.09;;;15.82;nan
46023;BME280;31756;47.936;16.224;2023-03-21T11:13:40;98650.28;;;15.92;nan
46023;BME280;31756;47.936;16.224;2023-03-21T11:16:09;98642.50;;;16.14;nan
46023;BME280;31756;47.936;16.224;2023-03-21T11:18:42;98650.91;;;16.39;nan
46023;BME280;31756;47.936;16.224;2023-03-21T11:21:10;98648.88;;;16.06;nan
46023;BME280;31756;47.936;16.224;2023-03-21T11:23:45;98644.28;;;15.70;nan
46023;BME280;31756;47.936;16.224;2023-03-21T11:26:19;98654.88;;;15.86;nan
46023;BME280;31756;47.936;16.224;2023-03-21T11:28:49;98653.03;;;15.88;nan
46023;BME280;31756;47.936;16.224;2023-03-21T11:31:18;98651.00;;;15.74;nan
46023;BME280;31756;47.936;16.224;2023-03-21T11:33:51;98624.34;;;15.74;nan
46023;BME280;31756;47.936;16.224;2023-03-21T11:38:48;98633.16;;;15.68;nan
46023;BME280;31756;47.936;16.224;2023-03-21T11:41:33;98629.72;;;15.89;nan
46023;BME280;31756;47.936;16.224;2023-03-21T11:44:00;98630.28;;;16.18;nan
46023;BME280;31756;47.936;16.224;2023-03-21T11:46:29;98622.84;;;16.10;nan
46023;BME280;31756;47.936;16.224;2023-03-21T11:48:56;98627.91;;;16.33;nan
46023;BME280;31756;47.936;16.224;2023-03-21T11:52:13;98616.63;;;15.94;nan
46023;BME280;31756;47.936;16.224;2023-03-21T11:54:56;98613.34;;;16.31;nan
46023;BME280;31756;47.936;16.224;2023-03-21T12:00:17;98609.31;;;16.44;nan
46023;BME280;31756;47.936;16.224;2023-03-21T12:05:33;98590.31;;;16.45;nan
46023;BME280;31756;47.936;16.224;2023-03-21T12:10:45;98581.03;;;16.80;nan
46023;BME280;31756;47.936;16.224;2023-03-21T12:13:40;98594.91;;;16.59;nan
46023;BME280;31756;47.936;16.224;2023-03-21T12:20:11;98570.38;;;16.67;nan
46023;BME280;31756;47.936;16.224;2023-03-21T12:24:56;98577.84;;;16.73;nan
46023;BME280;31756;47.936;16.224;2023-03-21T12:33:05;98573.81;;;17.05;nan
46023;BME280;31756;47.936;16.224;2023-03-21T12:38:22;98571.56;;;17.16;nan
46023;BME280;31756;47.936;16.224;2023-03-21T12:41:03;98561.34;;;17.13;nan
46023;BME280;31756;47.936;16.224;2023-03-21T12:46:03;98561.41;;;16.93;nan
46023;BME280;31756;47.936;16.224;2023-03-21T12:48:38;98555.22;;;16.97;nan
46023;BME280;31756;47.936;16.224;2023-03-21T12:51:13;98554.84;;;17.05;nan
46023;BME280;31756;47.936;16.224;2023-03-21T12:56:10;98541.78;;;17.25;nan
46023;BME280;31756;47.936;16.224;2023-03-21T12:58:41;98534.44;;;17.34;nan
46023;BME280;31756;47.936;16.224;2023-03-21T13:01:09;98543.88;;;17.35;nan
46023;BME280;31756;47.936;16.224;2023-03-21T13:04:04;98533.97;;;17.08;nan
46023;BME280;31756;47.936;16.224;2023-03-21T13:06:21;98538.47;;;16.67;nan
46023;BME280;31756;47.936;16.224;2023-03-21T13:08:55;98552.84;;;16.54;nan
46023;BME280;31756;47.936;16.224;2023-03-21T13:11:24;98539.50;;;16.42;nan
46023;BME280;31756;47.936;16.224;2023-03-21T13:26:47;98522.22;;;16.24;nan
46023;BME280;31756;47.936;16.224;2023-03-21T13:29:23;98533.13;;;16.31;nan
46023;BME280;31756;47.936;16.224;2023-03-21T13:31:50;98525.59;;;16.45;nan
46023;BME280;31756;47.936;16.224;2023-03-21T13:34:17;98512.88;;;16.40;nan
46023;BME280;31756;47.936;16.224;2023-03-21T13:36:45;98523.91;;;16.64;nan
46023;BME280;31756;47.936;16.224;2023-03-21T13:39:17;98525.25;;;16.53;nan
46023;BME280;31756;47.936;16.224;2023-03-21T13:41:44;98523.06;;;16.43;nan
46023;BME280;31756;47.936;16.224;2023-03-21T13:46:44;98516.81;;;15.90;nan
46023;BME280;31756;47.936;16.224;2023-03-21T13:49:29;98526.03;;;15.95;nan
46023;BME280;31756;47.936;16.224;2023-03-21T13:51:56;98520.56;;;16.03;nan
46023;BME280;31756;47.936;16.224;2023-03-21T13:54:42;98523.13;;;15.83;nan
46023;BME280;31756;47.936;16.224;2023-03-21T13:57:17;98520.56;;;16.03;nan
46023;BME280;31756;47.936;16.224;2023-03-21T13:59:44;98515.50;;;16.20;nan
46023;BME280;31756;47.936;16.224;2023-03-21T14:02:29;98520.94;;;16.14;nan
46023;BME280;31756;47.936;16.224;2023-03-21T14:05:00;98510.97;;;16.05;nan
46023;BME280;31756;47.936;16.224;2023-03-21T14:07:30;98498.28;;;16.19;nan
46023;BME280;31756;47.936;16.224;2023-03-21T14:10:07;98510.44;;;16.17;nan
46023;BME280;31756;47.936;16.224;2023-03-21T14:12:39;98504.38;;;16.18;nan
46023;BME280;31756;47.936;16.224;2023-03-21T14:15:14;98489.84;;;16.16;nan
46023;BME280;31756;47.936;16.224;2023-03-21T14:18:04;98490.25;;;16.25;nan
46023;BME280;31756;47.936;16.224;2023-03-21T14:20:29;98481.72;;;16.23;nan
46023;BME280;31756;47.936;16.224;2023-03-21T14:22:56;98481.97;;;16.17;nan
46023;BME280;31756;47.936;16.224;2023-03-21T14:25:22;98475.25;;;16.13;nan
46023;BME280;31756;47.936;16.224;2023-03-21T14:27:54;98482.38;;;16.28;nan
46023;BME280;31756;47.936;16.224;2023-03-21T14:30:25;98474.75;;;16.44;nan
46023;BME280;31756;47.936;16.224;2023-03-21T14:32:53;98472.88;;;16.48;nan
46023;BME280;31756;47.936;16.224;2023-03-21T14:35:19;98469.84;;;16.57;nan
46023;BME280;31756;47.936;16.224;2023-03-21T14:37:45;98458.91;;;16.70;nan
46023;BME280;31756;47.936;16.224;2023-03-21T14:40:18;98463.31;;;16.87;nan
46023;BME280;31756;47.936;16.224;2023-03-21T14:42:45;98454.41;;;16.93;nan
46023;BME280;31756;47.936;16.224;2023-03-21T14:45:45;98454.84;;;16.83;nan
46023;BME280;31756;47.936;16.224;2023-03-21T14:48:09;98454.38;;;16.55;nan
46023;BME280;31756;47.936;16.224;2023-03-21T14:53:02;98452.34;;;16.63;nan
46023;BME280;31756;47.936;16.224;2023-03-21T14:55:27;98449.50;;;16.86;nan
46023;BME280;31756;47.936;16.224;2023-03-21T14:57:54;98444.53;;;17.01;nan
46023;BME280;31756;47.936;16.224;2023-03-21T15:00:24;98451.97;;;17.07;nan